Time;durP1;ratioP1;P1;durP2;ratioP2;P2;SDS_P1;SDS_P2;PMS_P1;PMS_P2;Temp;Humidity;BMP_temperature;BMP_pressure;BME280_temperature;BME280_humidity;BME280_pressure;Samples;Min_cycle;Max_cycle;Signal;HPM_P1;HPM_P2
2023/03/25 00:00:14;;;;;;;24.10;22.60;;;;;;;-141.22;100.00;65034.22;4934774;29;21140;-49
2023/03/25 00:02:43;;;;;;;23.50;22.40;;;;;;;-141.22;100.00;65034.22;4935417;29;20472;-48
2023/03/25 00:05:13;;;;;;;24.97;23.50;;;;;;;-141.22;100.00;65034.22;4935386;29;20441;-53
2023/03/25 00:07:41;;;;;;;24.73;22.83;;;;;;;-141.22;100.00;65034.22;4935200;29;20432;-54
2023/03/25 00:10:13;;;;;;;24.40;22.93;;;;;;;-141.22;100.00;65034.22;4934986;28;20499;-47
2023/03/25 00:12:42;;;;;;;25.70;23.40;;;;;;;-141.22;100.00;65034.22;4935027;29;20951;-50
2023/03/25 00:15:11;;;;;;;25.60;24.10;;;;;;;-141.22;100.00;65034.22;4935033;29;20443;-50
2023/03/25 00:17:39;;;;;;;25.97;24.17;;;;;;;-141.22;100.00;65034.22;4935137;29;20814;-47
2023/03/25 00:20:09;;;;;;;26.73;24.90;;;;;;;-141.22;100.00;65034.22;4934623;28;20476;-52
2023/03/25 00:22:39;;;;;;;26.13;24.73;;;;;;;-141.22;100.00;65034.22;4934727;29;20919;-50
2023/03/25 00:25:08;;;;;;;25.67;24.30;;;;;;;-141.22;100.00;65034.22;4935197;29;20520;-52
2023/03/25 00:27:38;;;;;;;26.27;24.83;;;;;;;-141.22;100.00;65034.22;4934784;29;20448;-50
2023/03/25 00:30:07;;;;;;;26.70;25.13;;;;;;;-141.22;100.00;65034.22;4934296;28;20532;-45
2023/03/25 00:32:35;;;;;;;25.33;24.13;;;;;;;-141.22;100.00;65034.22;4934389;29;20439;-47
2023/03/25 00:35:03;;;;;;;25.90;24.40;;;;;;;-141.22;100.00;65034.22;4934684;29;20491;-43
2023/03/25 00:37:30;;;;;;;25.13;23.60;;;;;;;-141.22;100.00;65034.22;4934934;29;20772;-50
2023/03/25 00:39:58;;;;;;;27.63;25.90;;;;;;;-141.22;100.00;65034.22;4934271;28;20496;-48
2023/03/25 00:42:26;;;;;;;26.17;24.53;;;;;;;-141.22;100.00;65034.22;4934508;29;20547;-53
2023/03/25 00:44:55;;;;;;;26.23;24.60;;;;;;;-141.22;100.00;65034.22;4934564;29;20836;-46
2023/03/25 00:47:23;;;;;;;26.67;25.10;;;;;;;-141.22;100.00;65034.22;4934654;29;20436;-49
2023/03/25 00:49:51;;;;;;;27.40;25.93;;;;;;;-141.22;100.00;65034.22;4933867;28;20563;-51
2023/03/25 00:52:21;;;;;;;26.87;25.10;;;;;;;-141.22;100.00;65034.22;4934397;29;20436;-47
2023/03/25 00:54:51;;;;;;;25.10;23.80;;;;;;;-141.22;100.00;65034.22;4934648;29;20437;-48
2023/03/25 00:57:19;;;;;;;25.63;24.03;;;;;;;-141.22;100.00;65034.22;4934291;29;20448;-52
2023/03/25 00:59:46;;;;;;;26.57;24.60;;;;;;;-141.22;100.00;65034.22;4933752;28;20873;-50
2023/03/25 01:02:17;;;;;;;25.80;24.50;;;;;;;-141.22;100.00;65034.22;4934257;29;20907;-49
2023/03/25 01:04:45;;;;;;;26.27;24.70;;;;;;;-141.22;100.00;65034.22;4934632;29;20437;-50
2023/03/25 01:07:14;;;;;;;26.20;24.57;;;;;;;-141.22;100.00;65034.22;4934088;29;20441;-51
2023/03/25 01:09:45;;;;;;;27.43;25.67;;;;;;;-141.22;100.00;65034.22;4933550;28;20476;-45
2023/03/25 01:12:13;;;;;;;25.70;24.40;;;;;;;-141.22;100.00;65034.22;4933874;29;20432;-46
2023/03/25 01:14:41;;;;;;;27.43;25.50;;;;;;;-141.22;100.00;65034.22;4934180;29;20433;-47
2023/03/25 01:17:10;;;;;;;26.67;24.70;;;;;;;-141.22;100.00;65034.22;4934327;29;20421;-49
2023/03/25 01:19:39;;;;;;;25.50;24.10;;;;;;;-141.22;100.00;65034.22;4933519;28;20512;-47
2023/03/25 01:22:07;;;;;;;26.10;24.80;;;;;;;-141.22;100.00;65034.22;4933462;29;20480;-47
2023/03/25 01:24:34;;;;;;;25.53;24.27;;;;;;;-141.22;100.00;65034.22;4934439;29;20437;-47
2023/03/25 01:27:02;;;;;;;25.37;23.77;;;;;;;-141.22;100.00;65034.22;4933637;29;20444;-51
2023/03/25 01:29:30;;;;;;;26.13;24.53;;;;;;;-141.22;100.00;65034.22;4933620;28;20548;-50
2023/03/25 01:31:58;;;;;;;25.40;23.90;;;;;;;-141.22;100.00;65034.22;4933523;29;20982;-50
2023/03/25 01:34:26;;;;;;;27.03;25.40;;;;;;;-141.22;100.00;65034.22;4933785;29;20436;-47
2023/03/25 01:36:55;;;;;;;26.80;24.97;;;;;;;-141.22;100.00;65034.22;4933826;29;20437;-53
2023/03/25 01:39:23;;;;;;;26.63;24.97;;;;;;;-141.22;100.00;65034.22;4933564;29;20475;-50
2023/03/25 01:41:53;;;;;;;26.93;25.00;;;;;;;-141.22;100.00;65034.22;4933705;29;20484;-50
2023/03/25 01:44:58;;;;;;;27.33;25.20;;;;;;;-141.22;100.00;65034.22;4933953;29;20436;-47
2023/03/25 01:47:26;;;;;;;28.87;26.83;;;;;;;-141.22;100.00;65034.22;4933814;29;20433;-50
2023/03/25 01:49:54;;;;;;;27.97;25.80;;;;;;;-141.22;100.00;65034.22;4931243;28;20474;-49
2023/03/25 01:52:28;;;;;;;28.27;26.30;;;;;;;-141.22;100.00;65034.22;4933666;29;20578;-47
2023/03/25 01:54:59;;;;;;;27.73;25.93;;;;;;;-141.22;100.00;65034.22;4933939;29;20439;-49
2023/03/25 01:57:29;;;;;;;26.60;25.00;;;;;;;-141.22;100.00;65034.22;4933818;29;20443;-49
2023/03/25 01:59:58;;;;;;;27.50;25.77;;;;;;;-141.22;100.00;65034.22;4932921;28;20886;-47
2023/03/25 02:02:33;;;;;;;26.97;25.23;;;;;;;-141.22;100.00;65034.22;4933535;29;20484;-54
2023/03/25 02:05:09;;;;;;;27.20;25.37;;;;;;;-141.22;100.00;65034.22;4933398;29;20503;-45
2023/03/25 02:07:41;;;;;;;27.30;25.33;;;;;;;-141.22;100.00;65034.22;4933597;29;20790;-48
2023/03/25 02:10:11;;;;;;;27.73;25.83;;;;;;;-141.22;100.00;65034.22;4933096;28;20475;-49
2023/03/25 02:12:39;;;;;;;27.13;25.33;;;;;;;-141.22;100.00;65034.22;4935537;29;20797;-46
2023/03/25 02:15:09;;;;;;;27.83;26.07;;;;;;;-141.22;100.00;65034.22;4937484;29;20534;-47
2023/03/25 02:17:49;;;;;;;27.20;25.30;;;;;;;-141.22;100.00;65034.22;4937294;29;20819;-48
2023/03/25 02:20:50;;;;;;;27.73;25.73;;;;;;;-141.22;100.00;65034.22;4936599;28;20468;-53
2023/03/25 02:23:48;;;;;;;27.10;25.10;;;;;;;-141.22;100.00;65034.22;4921166;29;20514;-49
2023/03/25 02:26:35;;;;;;;27.00;25.10;;;;;;;-141.22;100.00;65034.22;4937013;29;20451;-46
2023/03/25 02:29:10;;;;;;;29.53;25.90;;;;;;;-141.22;100.00;65034.22;4936347;28;20476;-51
2023/03/25 02:31:55;;;;;;;27.63;25.27;;;;;;;-141.22;100.00;65034.22;4936737;29;20428;-45
2023/03/25 02:34:41;;;;;;;26.70;24.93;;;;;;;-141.22;100.00;65034.22;4937146;29;20947;-52
2023/03/25 02:37:37;;;;;;;27.97;25.27;;;;;;;-141.22;100.00;65034.22;4936758;29;20432;-51
2023/03/25 02:40:09;;;;;;;25.60;23.90;;;;;;;-141.22;100.00;65034.22;4936412;28;20564;-53
2023/03/25 02:42:43;;;;;;;24.77;23.33;;;;;;;-141.22;100.00;65034.22;4936096;29;20468;-49
2023/03/25 02:45:18;;;;;;;26.97;25.20;;;;;;;-141.22;100.00;65034.22;4935676;29;20444;-47
2023/03/25 02:47:50;;;;;;;27.20;24.87;;;;;;;-141.22;100.00;65034.22;4936907;29;20443;-52
2023/03/25 02:50:22;;;;;;;26.07;24.47;;;;;;;-141.22;100.00;65034.22;4933888;28;20550;-49
2023/03/25 02:52:52;;;;;;;28.70;26.20;;;;;;;-141.22;100.00;65034.22;4936417;29;20528;-47
2023/03/25 02:55:24;;;;;;;29.67;26.40;;;;;;;-141.22;100.00;65034.22;4936787;29;20437;-48
2023/03/25 02:57:56;;;;;;;27.07;24.87;;;;;;;-141.22;100.00;65034.22;4936749;29;20436;-52
2023/03/25 03:00:27;;;;;;;28.00;25.80;;;;;;;-141.22;100.00;65034.22;4935958;28;20909;-50
2023/03/25 03:02:58;;;;;;;27.30;24.70;;;;;;;-141.22;100.00;65034.22;4936198;29;20567;-45
2023/03/25 03:05:29;;;;;;;27.00;24.90;;;;;;;-141.22;100.00;65034.22;4936480;29;20528;-52
2023/03/25 03:08:09;;;;;;;27.60;25.00;;;;;;;-141.22;100.00;65034.22;4936493;29;20843;-48
2023/03/25 03:10:46;;;;;;;27.17;25.47;;;;;;;-141.22;100.00;65034.22;4935756;29;20471;-48
2023/03/25 03:13:26;;;;;;;28.07;26.43;;;;;;;-141.22;100.00;65034.22;4936095;29;20428;-48
2023/03/25 03:16:01;;;;;;;28.10;26.20;;;;;;;-141.22;100.00;65034.22;4936318;29;20448;-49
2023/03/25 03:18:45;;;;;;;27.90;25.87;;;;;;;-141.22;100.00;65034.22;4933205;29;20432;-46
2023/03/25 03:21:22;;;;;;;29.67;27.50;;;;;;;-141.22;100.00;65034.22;4934686;28;21026;-45
2023/03/25 03:23:57;;;;;;;28.20;26.27;;;;;;;-141.22;100.00;65034.22;4931910;29;20476;-46
2023/03/25 03:26:37;;;;;;;28.03;25.90;;;;;;;-141.22;100.00;65034.22;4935797;29;20443;-50
2023/03/25 03:29:12;;;;;;;29.10;26.20;;;;;;;-141.22;100.00;65034.22;4932030;28;20772;-47
2023/03/25 03:31:45;;;;;;;28.70;26.63;;;;;;;-141.22;100.00;65034.22;4935020;29;20444;-48
2023/03/25 03:34:39;;;;;;;30.30;27.90;;;;;;;-141.22;100.00;65034.22;4935804;29;20492;-45
2023/03/25 03:37:11;;;;;;;27.83;26.13;;;;;;;-141.22;100.00;65034.22;4935602;29;20448;-52
2023/03/25 03:39:41;;;;;;;28.47;26.33;;;;;;;-141.22;100.00;65034.22;4935007;28;20473;-47
2023/03/25 03:42:18;;;;;;;28.50;26.43;;;;;;;-141.22;100.00;65034.22;4935318;29;20432;-51
2023/03/25 03:44:52;;;;;;;28.20;26.20;;;;;;;-141.22;100.00;65034.22;4935738;29;21022;-47
2023/03/25 03:47:23;;;;;;;29.33;27.20;;;;;;;-141.22;100.00;65034.22;4920236;29;20437;-46
2023/03/25 03:49:56;;;;;;;27.90;26.00;;;;;;;-141.22;100.00;65034.22;4934997;28;20473;-48
2023/03/25 03:52:28;;;;;;;27.33;25.53;;;;;;;-141.22;100.00;65034.22;4934577;29;20425;-46
2023/03/25 03:55:00;;;;;;;27.13;24.90;;;;;;;-141.22;100.00;65034.22;4934208;29;20437;-47
2023/03/25 03:57:33;;;;;;;26.87;25.37;;;;;;;-141.22;100.00;65034.22;4936549;29;20433;-46
2023/03/25 04:00:05;;;;;;;28.50;26.40;;;;;;;-141.22;100.00;65034.22;4935420;28;20464;-46
2023/03/25 04:02:38;;;;;;;29.10;26.80;;;;;;;-141.22;100.00;65034.22;4934326;29;20480;-46
2023/03/25 04:05:10;;;;;;;30.67;28.57;;;;;;;-141.22;100.00;65034.22;4934248;29;20456;-44
2023/03/25 04:07:43;;;;;;;30.20;28.00;;;;;;;-141.22;100.00;65034.22;4934363;29;20457;-45
2023/03/25 04:10:17;;;;;;;31.57;28.57;;;;;;;-141.22;100.00;65034.22;4932308;28;20468;-45
2023/03/25 04:12:51;;;;;;;30.13;28.10;;;;;;;-141.22;100.00;65034.22;4936211;29;20799;-48
2023/03/25 04:15:19;;;;;;;28.63;26.40;;;;;;;-141.22;100.00;65034.22;4935936;29;20437;-44
2023/03/25 04:17:47;;;;;;;30.80;28.63;;;;;;;-141.22;100.00;65034.22;4936114;29;20528;-43
2023/03/25 04:20:22;;;;;;;28.83;27.03;;;;;;;-141.22;100.00;65034.22;4935336;28;20460;-47
2023/03/25 04:22:51;;;;;;;29.70;27.50;;;;;;;-141.22;100.00;65034.22;4932571;29;20836;-45
2023/03/25 04:25:20;;;;;;;29.60;27.60;;;;;;;-141.22;100.00;65034.22;4933461;29;20429;-48
2023/03/25 04:27:52;;;;;;;32.20;28.90;;;;;;;-141.22;100.00;65034.22;4933889;29;20437;-43
2023/03/25 04:30:20;;;;;;;32.90;29.67;;;;;;;-141.22;100.00;65034.22;4934996;28;20889;-46
2023/03/25 04:32:50;;;;;;;32.60;30.10;;;;;;;-141.22;100.00;65034.22;4935189;29;20428;-46
2023/03/25 04:35:19;;;;;;;30.30;28.17;;;;;;;-141.22;100.00;65034.22;4935108;29;20441;-47
2023/03/25 04:37:48;;;;;;;30.27;27.90;;;;;;;-141.22;100.00;65034.22;4933697;29;20515;-44
2023/03/25 04:40:17;;;;;;;29.77;27.60;;;;;;;-141.22;100.00;65034.22;4934690;28;20465;-43
2023/03/25 04:42:45;;;;;;;29.20;27.50;;;;;;;-141.22;100.00;65034.22;4924909;29;20483;-45
2023/03/25 04:45:16;;;;;;;29.93;27.70;;;;;;;-141.22;100.00;65034.22;4934820;29;20464;-44
2023/03/25 04:47:46;;;;;;;30.20;28.20;;;;;;;-141.22;100.00;65034.22;4935008;29;20451;-46
2023/03/25 04:50:20;;;;;;;31.83;29.07;;;;;;;-141.22;100.00;65034.22;4929169;28;20892;-46
2023/03/25 04:52:48;;;;;;;28.87;26.93;;;;;;;-141.22;100.00;65034.22;4920019;29;20455;-43
2023/03/25 04:55:18;;;;;;;30.67;28.53;;;;;;;-141.22;100.00;65034.22;4935233;29;20445;-47
2023/03/25 04:57:47;;;;;;;32.03;29.30;;;;;;;-141.22;100.00;65034.22;4935349;29;20432;-47
2023/03/25 05:00:18;;;;;;;30.50;28.37;;;;;;;-141.22;100.00;65034.22;4933516;28;20472;-43
2023/03/25 05:02:48;;;;;;;32.80;30.20;;;;;;;-141.22;100.00;65034.22;4933464;29;20487;-48
2023/03/25 05:05:18;;;;;;;31.23;29.30;;;;;;;-141.22;100.00;65034.22;4934140;29;20459;-49
2023/03/25 05:07:48;;;;;;;33.30;30.70;;;;;;;-141.22;100.00;65034.22;4933126;29;20432;-45
2023/03/25 05:10:16;;;;;;;32.50;29.87;;;;;;;-141.22;100.00;65034.22;4932436;28;20559;-46
2023/03/25 05:12:44;;;;;;;30.70;28.40;;;;;;;-141.22;100.00;65034.22;4933656;29;20441;-49
2023/03/25 05:15:13;;;;;;;32.47;29.63;;;;;;;-141.22;100.00;65034.22;4936976;29;20506;-44
2023/03/25 05:17:43;;;;;;;32.47;29.50;;;;;;;-141.22;100.00;65034.22;4926559;29;20460;-45
2023/03/25 05:20:13;;;;;;;31.20;29.13;;;;;;;-141.22;100.00;65034.22;4922170;28;21015;-47
2023/03/25 05:22:42;;;;;;;34.13;31.10;;;;;;;-141.22;100.00;65034.22;4928228;29;20459;-45
2023/03/25 05:25:10;;;;;;;38.20;31.33;;;;;;;-141.22;100.00;65034.22;4929834;29;20468;-45
2023/03/25 05:27:38;;;;;;;31.63;29.47;;;;;;;-141.22;100.00;65034.22;4926518;29;20437;-47
2023/03/25 05:30:08;;;;;;;32.37;29.87;;;;;;;-141.22;100.00;65034.22;4927711;28;20492;-47
2023/03/25 05:32:39;;;;;;;33.13;29.93;;;;;;;-141.22;100.00;65034.22;4926420;29;20442;-43
2023/03/25 05:35:10;;;;;;;36.37;31.20;;;;;;;-141.22;100.00;65034.22;4921148;29;20434;-46
2023/03/25 05:37:38;;;;;;;32.23;29.60;;;;;;;-141.22;100.00;65034.22;4928336;29;20652;-48
2023/03/25 05:40:08;;;;;;;35.20;31.77;;;;;;;-141.22;100.00;65034.22;4928902;28;20474;-45
2023/03/25 05:42:45;;;;;;;33.20;30.53;;;;;;;-141.22;100.00;65034.22;4930204;29;20524;-51
2023/03/25 05:45:14;;;;;;;34.07;30.80;;;;;;;-141.22;100.00;65034.22;4924273;29;20591;-45
2023/03/25 05:47:43;;;;;;;33.93;30.83;;;;;;;-141.22;100.00;65034.22;4921827;29;20461;-43
2023/03/25 05:50:13;;;;;;;33.40;30.57;;;;;;;-141.22;100.00;65034.22;4933392;28;20822;-44
2023/03/25 05:52:41;;;;;;;43.00;32.17;;;;;;;-141.22;100.00;65034.22;4921754;29;20514;-46
2023/03/25 05:55:11;;;;;;;34.47;31.17;;;;;;;-141.22;100.00;65034.22;4930452;29;20436;-48
2023/03/25 05:57:39;;;;;;;35.27;30.63;;;;;;;-141.22;100.00;65034.22;4926429;29;20439;-43
2023/03/25 06:00:11;;;;;;;37.77;31.57;;;;;;;-141.22;100.00;65034.22;4887745;29;1067135;-46
2023/03/25 06:02:41;;;;;;;33.40;30.60;;;;;;;-141.22;100.00;65034.22;4923508;29;20197;-44
2023/03/25 06:05:13;;;;;;;34.57;31.10;;;;;;;-141.22;100.00;65034.22;4923890;29;20540;-47
2023/03/25 06:07:41;;;;;;;34.07;31.10;;;;;;;-141.22;100.00;65034.22;4925068;29;20433;-48
2023/03/25 06:10:10;;;;;;;37.53;32.00;;;;;;;-141.22;100.00;65034.22;4936168;28;20846;-43
2023/03/25 06:12:38;;;;;;;38.37;31.90;;;;;;;-141.22;100.00;65034.22;4931234;29;20942;-43
2023/03/25 06:15:08;;;;;;;34.80;31.57;;;;;;;-141.22;100.00;65034.22;4925727;29;20605;-43
2023/03/25 06:17:37;;;;;;;39.73;30.87;;;;;;;-141.22;100.00;65034.22;4934605;29;20445;-44
2023/03/25 06:20:10;;;;;;;35.53;31.53;;;;;;;-141.22;100.00;65034.22;4925532;28;20556;-46
2023/03/25 06:22:41;;;;;;;39.80;33.30;;;;;;;-141.22;100.00;65034.22;4933963;29;20446;-48
2023/03/25 06:25:11;;;;;;;35.00;31.80;;;;;;;-141.22;100.00;65034.22;4935141;29;20484;-47
2023/03/25 06:27:40;;;;;;;36.07;31.90;;;;;;;-141.22;100.00;65034.22;4932795;29;20434;-44
2023/03/25 06:30:09;;;;;;;35.33;32.10;;;;;;;-141.22;100.00;65034.22;4931696;28;20553;-44
2023/03/25 06:32:37;;;;;;;33.33;30.23;;;;;;;-141.22;100.00;65034.22;4934143;29;20433;-50
2023/03/25 06:35:08;;;;;;;33.77;30.80;;;;;;;-141.22;100.00;65034.22;4936891;29;20436;-45
2023/03/25 06:37:36;;;;;;;35.77;32.67;;;;;;;-141.22;100.00;65034.22;4925470;29;20433;-44
2023/03/25 06:40:06;;;;;;;39.07;32.50;;;;;;;-141.22;100.00;65034.22;4935686;28;20478;-49
2023/03/25 06:42:34;;;;;;;34.37;31.07;;;;;;;-141.22;100.00;65034.22;4932019;29;20986;-44
2023/03/25 06:45:03;;;;;;;36.33;31.80;;;;;;;-141.22;100.00;65034.22;4935852;29;20485;-47
2023/03/25 06:47:31;;;;;;;34.10;30.80;;;;;;;-141.22;100.00;65034.22;4927736;29;20453;-46
2023/03/25 06:49:59;;;;;;;33.93;30.57;;;;;;;-141.22;100.00;65034.22;4920138;28;20670;-46
2023/03/25 06:52:27;;;;;;;34.00;30.43;;;;;;;-141.22;100.00;65034.22;4921834;29;20441;-43
2023/03/25 06:54:55;;;;;;;32.40;29.73;;;;;;;-141.22;100.00;65034.22;4926364;29;20445;-46
2023/03/25 06:57:24;;;;;;;35.03;29.90;;;;;;;-141.22;100.00;65034.22;4918735;29;20528;-45
2023/03/25 06:59:51;;;;;;;42.70;31.33;;;;;;;-141.22;100.00;65034.22;4919215;28;20478;-43
2023/03/25 07:02:19;;;;;;;36.90;31.77;;;;;;;-141.22;100.00;65034.22;4931581;29;20935;-45
2023/03/25 07:04:47;;;;;;;36.27;31.83;;;;;;;-141.22;100.00;65034.22;4923157;29;20484;-44
2023/03/25 07:07:14;;;;;;;35.50;32.20;;;;;;;-141.22;100.00;65034.22;4928162;29;20492;-43
2023/03/25 07:09:42;;;;;;;39.77;33.47;;;;;;;-141.22;100.00;65034.22;4933726;28;21191;-44
2023/03/25 07:12:10;;;;;;;36.10;32.43;;;;;;;-141.22;100.00;65034.22;4930624;29;20814;-45
2023/03/25 07:14:39;;;;;;;34.50;31.47;;;;;;;-141.22;100.00;65034.22;4933374;29;20430;-45
2023/03/25 07:17:07;;;;;;;33.93;31.40;;;;;;;-141.22;100.00;65034.22;4925854;29;20449;-45
2023/03/25 07:19:35;;;;;;;36.63;32.87;;;;;;;-141.22;100.00;65034.22;4919055;28;20473;-45
2023/03/25 07:22:03;;;;;;;35.93;32.57;;;;;;;-141.22;100.00;65034.22;4920323;29;20493;-44
2023/03/25 07:24:31;;;;;;;35.30;31.90;;;;;;;-141.22;100.00;65034.22;4937410;29;20491;-45
2023/03/25 07:26:58;;;;;;;36.87;33.17;;;;;;;-141.22;100.00;65034.22;4939523;29;20455;-44
2023/03/25 07:29:26;;;;;;;35.67;32.33;;;;;;;-141.22;100.00;65034.22;4929191;28;20469;-44
2023/03/25 07:31:55;;;;;;;35.00;31.60;;;;;;;-141.22;100.00;65034.22;4927565;29;20439;-45
2023/03/25 07:34:23;;;;;;;37.20;33.43;;;;;;;-141.22;100.00;65034.22;4937493;29;20429;-48
2023/03/25 07:36:51;;;;;;;37.40;33.80;;;;;;;-141.22;100.00;65034.22;4927653;29;20438;-48
2023/03/25 07:39:18;;;;;;;37.90;34.20;;;;;;;-141.22;100.00;65034.22;4934330;28;20464;-44
2023/03/25 07:41:46;;;;;;;36.50;33.17;;;;;;;-141.22;100.00;65034.22;4932321;29;20429;-44
2023/03/25 07:44:14;;;;;;;35.20;32.37;;;;;;;-141.22;100.00;65034.22;4931963;29;20839;-44
2023/03/25 07:46:44;;;;;;;34.90;31.80;;;;;;;-141.22;100.00;65034.22;4930885;29;20446;-44
2023/03/25 07:49:14;;;;;;;35.67;32.37;;;;;;;-141.22;100.00;65034.22;4921172;28;20494;-44
2023/03/25 07:51:42;;;;;;;36.40;33.07;;;;;;;-141.22;100.00;65034.22;4922779;29;20437;-46
2023/03/25 07:54:10;;;;;;;36.53;33.03;;;;;;;-141.22;100.00;65034.22;4936711;29;21136;-47
2023/03/25 07:56:38;;;;;;;35.40;32.60;;;;;;;-141.22;100.00;65034.22;4925898;29;20445;-44
2023/03/25 07:59:06;;;;;;;37.47;33.53;;;;;;;-141.22;100.00;65034.22;4926530;28;20524;-48
2023/03/25 08:01:34;;;;;;;34.60;31.60;;;;;;;-141.22;100.00;65034.22;4928964;29;20544;-48
2023/03/25 08:04:02;;;;;;;34.50;31.40;;;;;;;-141.22;100.00;65034.22;4929778;29;20469;-53
2023/03/25 08:06:31;;;;;;;33.80;31.00;;;;;;;-141.22;100.00;65034.22;4931113;29;20508;-44
2023/03/25 08:08:58;;;;;;;32.93;30.53;;;;;;;-141.22;100.00;65034.22;4916695;28;20437;-47
2023/03/25 08:11:26;;;;;;;32.03;29.33;;;;;;;-141.22;100.00;65034.22;4916956;29;20488;-47
2023/03/25 08:13:54;;;;;;;31.90;29.33;;;;;;;-141.22;100.00;65034.22;4918584;29;20438;-51
2023/03/25 08:16:21;;;;;;;31.37;28.90;;;;;;;-141.22;100.00;65034.22;4927367;29;20468;-48
2023/03/25 08:18:51;;;;;;;34.00;31.03;;;;;;;-141.22;100.00;65034.22;4935782;29;20523;-48
2023/03/25 08:21:23;;;;;;;32.80;29.70;;;;;;;-141.22;100.00;65034.22;4932211;29;20461;-46
2023/03/25 08:23:57;;;;;;;33.83;31.00;;;;;;;-141.22;100.00;65034.22;4937229;29;20432;-47
2023/03/25 08:26:25;;;;;;;32.93;30.50;;;;;;;-141.22;100.00;65034.22;4930726;29;20480;-48
2023/03/25 08:28:56;;;;;;;33.33;30.17;;;;;;;-141.22;100.00;65034.22;4934748;28;20441;-47
2023/03/25 08:31:25;;;;;;;31.10;28.77;;;;;;;-141.22;100.00;65034.22;4925222;29;20468;-47
2023/03/25 08:33:52;;;;;;;32.67;30.03;;;;;;;-141.22;100.00;65034.22;4919546;29;20490;-44
2023/03/25 08:36:22;;;;;;;30.13;28.33;;;;;;;-141.22;100.00;65034.22;4927995;29;20437;-45
2023/03/25 08:38:50;;;;;;;29.83;27.87;;;;;;;-141.22;100.00;65034.22;4917550;29;20442;-51
2023/03/25 08:41:20;;;;;;;30.53;28.80;;;;;;;-141.22;100.00;65034.22;4933805;29;20445;-52
2023/03/25 08:43:49;;;;;;;30.67;28.97;;;;;;;-141.22;100.00;65034.22;4932692;29;21348;-46
2023/03/25 08:46:16;;;;;;;29.60;27.97;;;;;;;-141.22;100.00;65034.22;4931828;29;20828;-44
2023/03/25 08:48:44;;;;;;;30.43;27.93;;;;;;;-141.22;100.00;65034.22;4922772;29;20433;-44
2023/03/25 08:51:12;;;;;;;29.27;27.23;;;;;;;-141.22;100.00;65034.22;4914110;28;21401;-46
2023/03/25 08:53:40;;;;;;;30.27;28.13;;;;;;;-141.22;100.00;65034.22;4922885;29;20452;-49
2023/03/25 08:56:09;;;;;;;28.17;26.60;;;;;;;-141.22;100.00;65034.22;4917117;29;20457;-52
2023/03/25 08:58:38;;;;;;;26.07;24.90;;;;;;;-141.22;100.00;65034.22;4925587;29;20863;-46
2023/03/25 09:01:07;;;;;;;26.53;25.17;;;;;;;-141.22;100.00;65034.22;4933310;28;20990;-48
2023/03/25 09:03:36;;;;;;;27.43;25.93;;;;;;;-141.22;100.00;65034.22;4925303;29;20480;-46
2023/03/25 09:06:05;;;;;;;29.10;27.30;;;;;;;-141.22;100.00;65034.22;4929002;29;20476;-51
2023/03/25 09:08:32;;;;;;;26.60;25.13;;;;;;;-141.22;100.00;65034.22;4917630;29;20422;-46
2023/03/25 09:11:00;;;;;;;28.23;26.67;;;;;;;-141.22;100.00;65034.22;4921155;28;20462;-49
2023/03/25 09:13:28;;;;;;;26.93;25.43;;;;;;;-141.22;100.00;65034.22;4921842;29;21211;-48
2023/03/25 09:15:59;;;;;;;26.90;25.30;;;;;;;-141.22;100.00;65034.22;4934544;29;20432;-50
2023/03/25 09:18:26;;;;;;;26.33;24.83;;;;;;;-141.22;100.00;65034.22;4924823;29;20443;-47
2023/03/25 09:20:58;;;;;;;26.07;24.63;;;;;;;-141.22;100.00;65034.22;4929302;28;21191;-44
2023/03/25 09:23:25;;;;;;;26.40;24.50;;;;;;;-141.22;100.00;65034.22;4925008;29;20509;-55
2023/03/25 09:25:53;;;;;;;27.10;25.53;;;;;;;-141.22;100.00;65034.22;4917959;29;20461;-48
2023/03/25 09:28:21;;;;;;;27.93;26.33;;;;;;;-141.22;100.00;65034.22;4920250;29;20441;-47
2023/03/25 09:30:49;;;;;;;28.40;26.20;;;;;;;-141.22;100.00;65034.22;4919006;28;20473;-45
2023/03/25 09:33:18;;;;;;;28.43;26.50;;;;;;;-141.22;100.00;65034.22;4927000;29;20437;-53
2023/03/25 09:35:46;;;;;;;28.83;26.83;;;;;;;-141.22;100.00;65034.22;4926430;29;20433;-49
2023/03/25 09:38:13;;;;;;;29.80;27.37;;;;;;;-141.22;100.00;65034.22;4924950;29;20444;-52
2023/03/25 09:40:42;;;;;;;28.93;27.10;;;;;;;-141.22;100.00;65034.22;4928372;28;20548;-46
2023/03/25 09:43:25;;;;;;;30.07;27.77;;;;;;;-141.22;100.00;65034.22;4930136;29;20437;-48
2023/03/25 09:45:55;;;;;;;28.80;26.90;;;;;;;-141.22;100.00;65034.22;4925814;29;20477;-49
2023/03/25 09:48:32;;;;;;;29.93;27.87;;;;;;;-141.22;100.00;65034.22;4922226;29;20437;-50
2023/03/25 09:51:04;;;;;;;31.37;29.33;;;;;;;-141.22;100.00;65034.22;4919919;28;20485;-48
2023/03/25 09:53:39;;;;;;;29.20;27.33;;;;;;;-141.22;100.00;65034.22;4933076;29;20443;-44
2023/03/25 09:56:13;;;;;;;28.80;26.77;;;;;;;-141.22;100.00;65034.22;4924032;29;21705;-44
2023/03/25 09:58:43;;;;;;;28.60;26.50;;;;;;;-141.22;100.00;65034.22;4927243;29;20815;-49
2023/03/25 10:01:28;;;;;;;27.63;25.73;;;;;;;-141.22;100.00;65034.22;4927034;28;20469;-49
2023/03/25 10:04:10;;;;;;;27.33;25.43;;;;;;;-141.22;100.00;65034.22;4932922;29;20420;-49
2023/03/25 10:06:43;;;;;;;29.37;26.40;;;;;;;-141.22;100.00;65034.22;4929173;29;20831;-46
2023/03/25 10:09:26;;;;;;;28.60;26.27;;;;;;;-141.22;100.00;65034.22;4922308;28;20437;-45
2023/03/25 10:12:02;;;;;;;28.20;25.50;;;;;;;-141.22;100.00;65034.22;4930725;29;20467;-45
2023/03/25 10:14:37;;;;;;;26.17;24.27;;;;;;;-141.22;100.00;65034.22;4926985;29;20444;-47
2023/03/25 10:17:17;;;;;;;28.47;26.17;;;;;;;-141.22;100.00;65034.22;4927201;29;20441;-47
2023/03/25 10:19:56;;;;;;;27.30;25.40;;;;;;;-141.22;100.00;65034.22;4928821;28;20483;-44
2023/03/25 10:22:28;;;;;;;28.07;25.83;;;;;;;-141.22;100.00;65034.22;4935131;29;20998;-43
2023/03/25 10:25:00;;;;;;;27.93;25.53;;;;;;;-141.22;100.00;65034.22;4926989;29;20432;-44
2023/03/25 10:27:34;;;;;;;27.50;25.70;;;;;;;-141.22;100.00;65034.22;4925881;29;20487;-46
2023/03/25 10:30:10;;;;;;;26.17;24.50;;;;;;;-141.22;100.00;65034.22;4922210;28;20542;-46
2023/03/25 10:32:42;;;;;;;28.03;25.90;;;;;;;-141.22;100.00;65034.22;4932031;29;20437;-44
2023/03/25 10:35:16;;;;;;;28.90;26.40;;;;;;;-141.22;100.00;65034.22;4932377;29;20458;-44
2023/03/25 10:37:46;;;;;;;29.47;26.97;;;;;;;-141.22;100.00;65034.22;4930949;29;20693;-44
2023/03/25 10:40:19;;;;;;;29.47;26.97;;;;;;;-141.22;100.00;65034.22;4928579;28;20473;-44
2023/03/25 10:42:58;;;;;;;31.77;28.83;;;;;;;-141.22;100.00;65034.22;4929839;29;21082;-47
2023/03/25 10:45:28;;;;;;;28.97;26.60;;;;;;;-141.22;100.00;65034.22;4923418;29;20434;-44
2023/03/25 10:48:04;;;;;;;30.07;27.73;;;;;;;-141.22;100.00;65034.22;4935426;29;20870;-49
2023/03/25 10:50:34;;;;;;;31.83;28.97;;;;;;;-141.22;100.00;65034.22;4935436;28;20528;-47
2023/03/25 10:53:02;;;;;;;32.00;28.43;;;;;;;-141.22;100.00;65034.22;4930825;29;20449;-48
2023/03/25 10:55:35;;;;;;;32.27;29.37;;;;;;;-141.22;100.00;65034.22;4941168;29;20433;-47
2023/03/25 10:58:04;;;;;;;30.33;28.00;;;;;;;-141.22;100.00;65034.22;4940788;29;20444;-46
2023/03/25 11:00:33;;;;;;;31.13;28.73;;;;;;;-141.22;100.00;65034.22;4920641;28;20477;-46
2023/03/25 11:03:00;;;;;;;33.20;29.90;;;;;;;-141.22;100.00;65034.22;4921291;29;20432;-43
2023/03/25 11:05:29;;;;;;;31.00;28.27;;;;;;;-141.22;100.00;65034.22;4921114;29;20430;-44
2023/03/25 11:08:02;;;;;;;30.87;28.23;;;;;;;-141.22;100.00;65034.22;4922042;29;20552;-45
2023/03/25 11:10:50;;;;;;;32.00;28.17;;;;;;;-141.22;100.00;65034.22;4921390;29;20469;-45